sensor_id;sensor_type;location;lat;lon;timestamp;P1;durP1;ratioP1;P2;durP2;ratioP2
20861;SDS011;10591;52.532;13.348;2023-05-10T00:01:32;10.10;;;6.97;;
20861;SDS011;10591;52.532;13.348;2023-05-10T00:04:03;9.25;;;6.92;;
20861;SDS011;10591;52.532;13.348;2023-05-10T00:06:34;9.03;;;6.95;;
20861;SDS011;10591;52.532;13.348;2023-05-10T00:09:04;9.23;;;7.30;;
20861;SDS011;10591;52.532;13.348;2023-05-10T00:11:35;11.63;;;7.53;;
20861;SDS011;10591;52.532;13.348;2023-05-10T00:14:06;8.13;;;6.97;;
20861;SDS011;10591;52.532;13.348;2023-05-10T00:16:37;8.68;;;7.55;;
20861;SDS011;10591;52.532;13.348;2023-05-10T00:19:07;9.68;;;6.60;;
20861;SDS011;10591;52.532;13.348;2023-05-10T00:21:40;7.50;;;6.62;;
20861;SDS011;10591;52.532;13.348;2023-05-10T00:24:10;10.05;;;7.37;;
20861;SDS011;10591;52.532;13.348;2023-05-10T00:26:41;8.68;;;6.90;;
20861;SDS011;10591;52.532;13.348;2023-05-10T00:29:11;10.40;;;7.30;;
20861;SDS011;10591;52.532;13.348;2023-05-10T00:31:43;10.35;;;7.40;;
20861;SDS011;10591;52.532;13.348;2023-05-10T00:34:14;10.32;;;7.12;;
20861;SDS011;10591;52.532;13.348;2023-05-10T00:36:45;13.28;;;8.08;;
20861;SDS011;10591;52.532;13.348;2023-05-10T00:39:15;11.73;;;7.60;;
20861;SDS011;10591;52.532;13.348;2023-05-10T00:41:47;11.55;;;7.53;;
20861;SDS011;10591;52.532;13.348;2023-05-10T00:44:18;9.98;;;7.17;;
20861;SDS011;10591;52.532;13.348;2023-05-10T00:46:49;8.60;;;7.33;;
20861;SDS011;10591;52.532;13.348;2023-05-10T00:49:20;11.80;;;7.20;;
20861;SDS011;10591;52.532;13.348;2023-05-10T00:51:51;12.10;;;8.03;;
20861;SDS011;10591;52.532;13.348;2023-05-10T00:54:22;12.15;;;8.05;;
20861;SDS011;10591;52.532;13.348;2023-05-10T00:56:53;10.50;;;7.85;;
20861;SDS011;10591;52.532;13.348;2023-05-10T00:59:26;14.63;;;7.97;;
20861;SDS011;10591;52.532;13.348;2023-05-10T01:01:57;12.23;;;8.13;;
20861;SDS011;10591;52.532;13.348;2023-05-10T01:04:28;9.38;;;7.28;;
20861;SDS011;10591;52.532;13.348;2023-05-10T01:06:59;10.32;;;7.30;;
20861;SDS011;10591;52.532;13.348;2023-05-10T01:09:30;10.95;;;7.90;;
20861;SDS011;10591;52.532;13.348;2023-05-10T01:12:02;10.30;;;8.08;;
20861;SDS011;10591;52.532;13.348;2023-05-10T01:14:35;9.98;;;7.90;;
20861;SDS011;10591;52.532;13.348;2023-05-10T01:17:07;10.70;;;7.75;;
20861;SDS011;10591;52.532;13.348;2023-05-10T01:19:38;11.43;;;7.67;;
20861;SDS011;10591;52.532;13.348;2023-05-10T01:28:14;11.00;;;7.57;;
20861;SDS011;10591;52.532;13.348;2023-05-10T01:36:30;7.60;;;6.58;;
20861;SDS011;10591;52.532;13.348;2023-05-10T01:39:07;7.78;;;7.03;;
20861;SDS011;10591;52.532;13.348;2023-05-10T01:44:29;10.98;;;7.62;;
20861;SDS011;10591;52.532;13.348;2023-05-10T01:47:05;9.47;;;7.47;;
20861;SDS011;10591;52.532;13.348;2023-05-10T01:49:42;9.30;;;7.50;;
20861;SDS011;10591;52.532;13.348;2023-05-10T01:52:14;9.28;;;7.20;;
20861;SDS011;10591;52.532;13.348;2023-05-10T01:55:00;9.93;;;7.95;;
20861;SDS011;10591;52.532;13.348;2023-05-10T01:57:36;10.18;;;7.78;;
20861;SDS011;10591;52.532;13.348;2023-05-10T02:00:05;9.68;;;7.47;;
20861;SDS011;10591;52.532;13.348;2023-05-10T02:02:39;9.45;;;7.60;;
20861;SDS011;10591;52.532;13.348;2023-05-10T02:05:12;9.33;;;8.00;;
20861;SDS011;10591;52.532;13.348;2023-05-10T02:07:44;10.93;;;7.37;;
20861;SDS011;10591;52.532;13.348;2023-05-10T02:10:16;8.85;;;7.30;;
20861;SDS011;10591;52.532;13.348;2023-05-10T02:12:48;8.68;;;7.25;;
20861;SDS011;10591;52.532;13.348;2023-05-10T02:15:22;9.45;;;7.50;;
20861;SDS011;10591;52.532;13.348;2023-05-10T02:18:00;10.03;;;7.92;;
20861;SDS011;10591;52.532;13.348;2023-05-10T02:20:26;10.88;;;7.97;;
20861;SDS011;10591;52.532;13.348;2023-05-10T02:22:57;10.05;;;7.90;;
20861;SDS011;10591;52.532;13.348;2023-05-10T02:25:29;9.15;;;7.62;;
20861;SDS011;10591;52.532;13.348;2023-05-10T02:28:05;9.47;;;7.47;;
20861;SDS011;10591;52.532;13.348;2023-05-10T02:30:36;8.73;;;7.22;;
20861;SDS011;10591;52.532;13.348;2023-05-10T02:33:07;9.67;;;7.50;;
20861;SDS011;10591;52.532;13.348;2023-05-10T02:35:39;9.48;;;7.35;;
20861;SDS011;10591;52.532;13.348;2023-05-10T02:38:10;8.63;;;7.45;;
20861;SDS011;10591;52.532;13.348;2023-05-10T02:40:43;8.63;;;7.12;;
20861;SDS011;10591;52.532;13.348;2023-05-10T02:43:16;8.45;;;7.37;;
20861;SDS011;10591;52.532;13.348;2023-05-10T02:45:48;9.35;;;7.45;;
20861;SDS011;10591;52.532;13.348;2023-05-10T02:48:19;8.58;;;7.17;;
20861;SDS011;10591;52.532;13.348;2023-05-10T02:50:50;9.87;;;7.70;;
20861;SDS011;10591;52.532;13.348;2023-05-10T02:53:27;11.97;;;7.87;;
20861;SDS011;10591;52.532;13.348;2023-05-10T02:56:00;11.75;;;7.53;;
20861;SDS011;10591;52.532;13.348;2023-05-10T02:58:34;10.43;;;7.70;;
20861;SDS011;10591;52.532;13.348;2023-05-10T03:01:06;11.33;;;7.77;;
20861;SDS011;10591;52.532;13.348;2023-05-10T03:03:37;10.17;;;7.43;;
20861;SDS011;10591;52.532;13.348;2023-05-10T03:06:09;8.23;;;7.33;;
20861;SDS011;10591;52.532;13.348;2023-05-10T03:08:39;9.78;;;7.03;;
20861;SDS011;10591;52.532;13.348;2023-05-10T03:14:09;10.53;;;6.83;;
20861;SDS011;10591;52.532;13.348;2023-05-10T03:16:45;10.65;;;7.35;;
20861;SDS011;10591;52.532;13.348;2023-05-10T03:22:40;11.00;;;7.33;;
20861;SDS011;10591;52.532;13.348;2023-05-10T03:25:08;8.43;;;7.33;;
20861;SDS011;10591;52.532;13.348;2023-05-10T03:27:41;8.97;;;7.10;;
20861;SDS011;10591;52.532;13.348;2023-05-10T03:30:13;8.60;;;7.28;;
20861;SDS011;10591;52.532;13.348;2023-05-10T03:32:45;10.30;;;6.75;;
20861;SDS011;10591;52.532;13.348;2023-05-10T03:35:16;9.77;;;7.27;;
20861;SDS011;10591;52.532;13.348;2023-05-10T03:37:47;10.75;;;7.47;;
20861;SDS011;10591;52.532;13.348;2023-05-10T03:40:17;9.15;;;6.90;;
20861;SDS011;10591;52.532;13.348;2023-05-10T03:42:49;9.67;;;7.17;;
20861;SDS011;10591;52.532;13.348;2023-05-10T03:45:20;13.90;;;8.15;;
20861;SDS011;10591;52.532;13.348;2023-05-10T03:47:52;9.35;;;7.05;;
20861;SDS011;10591;52.532;13.348;2023-05-10T03:50:24;10.75;;;7.25;;
20861;SDS011;10591;52.532;13.348;2023-05-10T03:52:56;11.60;;;7.25;;
20861;SDS011;10591;52.532;13.348;2023-05-10T03:55:27;11.30;;;7.42;;
20861;SDS011;10591;52.532;13.348;2023-05-10T03:57:58;14.63;;;7.78;;
20861;SDS011;10591;52.532;13.348;2023-05-10T04:00:28;10.98;;;6.95;;
20861;SDS011;10591;52.532;13.348;2023-05-10T04:03:00;8.30;;;7.00;;
20861;SDS011;10591;52.532;13.348;2023-05-10T04:05:31;10.63;;;7.50;;
20861;SDS011;10591;52.532;13.348;2023-05-10T04:08:02;9.78;;;6.95;;
20861;SDS011;10591;52.532;13.348;2023-05-10T04:10:33;10.70;;;7.42;;
20861;SDS011;10591;52.532;13.348;2023-05-10T04:13:03;11.22;;;7.20;;
20861;SDS011;10591;52.532;13.348;2023-05-10T04:15:35;13.13;;;7.47;;
20861;SDS011;10591;52.532;13.348;2023-05-10T04:18:06;8.83;;;6.00;;
20861;SDS011;10591;52.532;13.348;2023-05-10T04:20:37;8.63;;;6.87;;
20861;SDS011;10591;52.532;13.348;2023-05-10T04:23:07;10.43;;;6.97;;
20861;SDS011;10591;52.532;13.348;2023-05-10T04:25:40;11.55;;;6.87;;
20861;SDS011;10591;52.532;13.348;2023-05-10T04:28:12;13.78;;;7.92;;
20861;SDS011;10591;52.532;13.348;2023-05-10T04:30:42;11.63;;;7.17;;
20861;SDS011;10591;52.532;13.348;2023-05-10T04:33:14;12.98;;;7.05;;
20861;SDS011;10591;52.532;13.348;2023-05-10T04:35:45;14.73;;;7.47;;
20861;SDS011;10591;52.532;13.348;2023-05-10T04:38:15;10.63;;;6.35;;
20861;SDS011;10591;52.532;13.348;2023-05-10T04:40:46;9.13;;;5.50;;
20861;SDS011;10591;52.532;13.348;2023-05-10T04:43:17;12.63;;;7.30;;
20861;SDS011;10591;52.532;13.348;2023-05-10T04:45:48;9.55;;;6.67;;
20861;SDS011;10591;52.532;13.348;2023-05-10T04:48:21;10.40;;;6.57;;
20861;SDS011;10591;52.532;13.348;2023-05-10T04:50:52;13.08;;;6.80;;
20861;SDS011;10591;52.532;13.348;2023-05-10T04:53:22;9.57;;;6.80;;
20861;SDS011;10591;52.532;13.348;2023-05-10T04:55:56;9.45;;;5.90;;
20861;SDS011;10591;52.532;13.348;2023-05-10T04:58:28;8.50;;;5.62;;
20861;SDS011;10591;52.532;13.348;2023-05-10T05:01:08;8.40;;;6.15;;
20861;SDS011;10591;52.532;13.348;2023-05-10T05:03:39;10.00;;;6.53;;
20861;SDS011;10591;52.532;13.348;2023-05-10T05:06:10;12.73;;;6.10;;
20861;SDS011;10591;52.532;13.348;2023-05-10T05:08:42;8.83;;;5.95;;
20861;SDS011;10591;52.532;13.348;2023-05-10T05:11:13;18.30;;;7.00;;
20861;SDS011;10591;52.532;13.348;2023-05-10T05:13:44;19.48;;;7.03;;
20861;SDS011;10591;52.532;13.348;2023-05-10T05:16:15;7.30;;;5.83;;
20861;SDS011;10591;52.532;13.348;2023-05-10T05:18:46;13.90;;;6.65;;
20861;SDS011;10591;52.532;13.348;2023-05-10T05:21:17;17.17;;;6.65;;
20861;SDS011;10591;52.532;13.348;2023-05-10T05:23:50;12.93;;;6.40;;
20861;SDS011;10591;52.532;13.348;2023-05-10T05:26:23;12.53;;;6.30;;
20861;SDS011;10591;52.532;13.348;2023-05-10T05:28:53;13.98;;;6.25;;
20861;SDS011;10591;52.532;13.348;2023-05-10T05:31:24;16.05;;;6.65;;
20861;SDS011;10591;52.532;13.348;2023-05-10T05:33:55;17.80;;;7.97;;
20861;SDS011;10591;52.532;13.348;2023-05-10T05:36:27;12.40;;;6.95;;
20861;SDS011;10591;52.532;13.348;2023-05-10T05:39:01;14.70;;;6.72;;
20861;SDS011;10591;52.532;13.348;2023-05-10T05:41:34;11.90;;;6.87;;
20861;SDS011;10591;52.532;13.348;2023-05-10T05:44:06;13.60;;;6.80;;
20861;SDS011;10591;52.532;13.348;2023-05-10T05:46:38;12.70;;;6.58;;
20861;SDS011;10591;52.532;13.348;2023-05-10T05:49:09;11.20;;;6.35;;
20861;SDS011;10591;52.532;13.348;2023-05-10T05:51:41;8.53;;;5.42;;
20861;SDS011;10591;52.532;13.348;2023-05-10T05:54:11;7.22;;;5.15;;
20861;SDS011;10591;52.532;13.348;2023-05-10T05:56:42;8.65;;;5.47;;
20861;SDS011;10591;52.532;13.348;2023-05-10T05:59:14;11.90;;;5.70;;
20861;SDS011;10591;52.532;13.348;2023-05-10T06:01:45;7.45;;;4.80;;
20861;SDS011;10591;52.532;13.348;2023-05-10T06:04:16;9.83;;;5.47;;
20861;SDS011;10591;52.532;13.348;2023-05-10T06:06:47;8.93;;;5.37;;
20861;SDS011;10591;52.532;13.348;2023-05-10T06:09:21;10.38;;;5.35;;
20861;SDS011;10591;52.532;13.348;2023-05-10T06:11:53;9.98;;;5.75;;
20861;SDS011;10591;52.532;13.348;2023-05-10T06:14:25;7.60;;;5.25;;
20861;SDS011;10591;52.532;13.348;2023-05-10T06:16:56;8.45;;;4.95;;
20861;SDS011;10591;52.532;13.348;2023-05-10T06:19:28;7.75;;;4.85;;
20861;SDS011;10591;52.532;13.348;2023-05-10T06:22:00;9.53;;;4.37;;
20861;SDS011;10591;52.532;13.348;2023-05-10T06:24:31;6.03;;;4.92;;
20861;SDS011;10591;52.532;13.348;2023-05-10T06:27:02;9.63;;;4.80;;
20861;SDS011;10591;52.532;13.348;2023-05-10T06:29:35;5.37;;;4.10;;
20861;SDS011;10591;52.532;13.348;2023-05-10T06:32:08;5.67;;;4.40;;
20861;SDS011;10591;52.532;13.348;2023-05-10T06:34:39;9.28;;;4.78;;
20861;SDS011;10591;52.532;13.348;2023-05-10T06:37:12;9.18;;;5.30;;
20861;SDS011;10591;52.532;13.348;2023-05-10T06:39:43;7.17;;;4.60;;
20861;SDS011;10591;52.532;13.348;2023-05-10T06:42:13;8.55;;;4.92;;
20861;SDS011;10591;52.532;13.348;2023-05-10T06:44:44;7.90;;;4.85;;
20861;SDS011;10591;52.532;13.348;2023-05-10T06:47:15;7.22;;;4.60;;
20861;SDS011;10591;52.532;13.348;2023-05-10T06:49:47;10.25;;;4.53;;
20861;SDS011;10591;52.532;13.348;2023-05-10T06:52:18;6.37;;;4.35;;
20861;SDS011;10591;52.532;13.348;2023-05-10T06:54:48;11.80;;;5.42;;
20861;SDS011;10591;52.532;13.348;2023-05-10T06:57:19;9.83;;;5.28;;
20861;SDS011;10591;52.532;13.348;2023-05-10T06:59:52;7.72;;;4.83;;
20861;SDS011;10591;52.532;13.348;2023-05-10T07:02:24;6.35;;;4.25;;
20861;SDS011;10591;52.532;13.348;2023-05-10T07:04:57;10.58;;;5.20;;
20861;SDS011;10591;52.532;13.348;2023-05-10T07:07:29;9.05;;;5.00;;
20861;SDS011;10591;52.532;13.348;2023-05-10T07:10:01;11.88;;;5.50;;
20861;SDS011;10591;52.532;13.348;2023-05-10T07:12:32;7.20;;;4.72;;
20861;SDS011;10591;52.532;13.348;2023-05-10T07:15:06;7.10;;;4.75;;
20861;SDS011;10591;52.532;13.348;2023-05-10T07:17:37;7.97;;;4.92;;
20861;SDS011;10591;52.532;13.348;2023-05-10T07:20:10;8.68;;;4.67;;
20861;SDS011;10591;52.532;13.348;2023-05-10T07:22:41;7.80;;;4.67;;
20861;SDS011;10591;52.532;13.348;2023-05-10T07:25:13;8.45;;;4.80;;
20861;SDS011;10591;52.532;13.348;2023-05-10T07:27:44;6.92;;;4.62;;
20861;SDS011;10591;52.532;13.348;2023-05-10T07:30:18;7.70;;;4.83;;
20861;SDS011;10591;52.532;13.348;2023-05-10T07:32:48;8.23;;;4.42;;
20861;SDS011;10591;52.532;13.348;2023-05-10T07:35:19;6.42;;;4.25;;
20861;SDS011;10591;52.532;13.348;2023-05-10T07:37:50;6.25;;;3.92;;
20861;SDS011;10591;52.532;13.348;2023-05-10T07:40:21;6.62;;;3.83;;
20861;SDS011;10591;52.532;13.348;2023-05-10T07:42:53;8.35;;;4.72;;
20861;SDS011;10591;52.532;13.348;2023-05-10T07:45:24;6.30;;;4.40;;
20861;SDS011;10591;52.532;13.348;2023-05-10T07:47:55;5.92;;;4.28;;
20861;SDS011;10591;52.532;13.348;2023-05-10T07:50:28;7.00;;;4.58;;
20861;SDS011;10591;52.532;13.348;2023-05-10T07:52:59;5.87;;;4.40;;
20861;SDS011;10591;52.532;13.348;2023-05-10T07:55:30;8.15;;;4.55;;
20861;SDS011;10591;52.532;13.348;2023-05-10T07:58:01;10.05;;;5.10;;
20861;SDS011;10591;52.532;13.348;2023-05-10T08:00:31;10.82;;;4.28;;
20861;SDS011;10591;52.532;13.348;2023-05-10T08:03:02;9.45;;;5.03;;
20861;SDS011;10591;52.532;13.348;2023-05-10T08:05:33;7.58;;;4.62;;
20861;SDS011;10591;52.532;13.348;2023-05-10T08:08:04;7.33;;;4.53;;
20861;SDS011;10591;52.532;13.348;2023-05-10T08:10:34;7.45;;;4.80;;
20861;SDS011;10591;52.532;13.348;2023-05-10T08:13:05;7.62;;;4.75;;
20861;SDS011;10591;52.532;13.348;2023-05-10T08:15:36;9.73;;;4.67;;
20861;SDS011;10591;52.532;13.348;2023-05-10T08:18:09;8.78;;;4.45;;
20861;SDS011;10591;52.532;13.348;2023-05-10T08:20:41;4.87;;;4.22;;
20861;SDS011;10591;52.532;13.348;2023-05-10T08:23:14;8.40;;;4.78;;
20861;SDS011;10591;52.532;13.348;2023-05-10T08:25:45;10.58;;;5.33;;
20861;SDS011;10591;52.532;13.348;2023-05-10T08:28:16;4.28;;;3.72;;
20861;SDS011;10591;52.532;13.348;2023-05-10T08:30:46;6.65;;;4.00;;
20861;SDS011;10591;52.532;13.348;2023-05-10T08:33:19;6.55;;;4.00;;
20861;SDS011;10591;52.532;13.348;2023-05-10T08:35:49;11.75;;;4.37;;
20861;SDS011;10591;52.532;13.348;2023-05-10T08:38:21;4.40;;;3.70;;
20861;SDS011;10591;52.532;13.348;2023-05-10T08:40:51;9.40;;;4.75;;
20861;SDS011;10591;52.532;13.348;2023-05-10T08:43:28;9.85;;;4.65;;
20861;SDS011;10591;52.532;13.348;2023-05-10T08:46:02;11.22;;;5.30;;
20861;SDS011;10591;52.532;13.348;2023-05-10T08:48:34;12.75;;;5.62;;
20861;SDS011;10591;52.532;13.348;2023-05-10T08:51:07;14.70;;;6.03;;
20861;SDS011;10591;52.532;13.348;2023-05-10T08:53:39;16.12;;;5.55;;
20861;SDS011;10591;52.532;13.348;2023-05-10T08:56:12;8.40;;;4.45;;
20861;SDS011;10591;52.532;13.348;2023-05-10T08:58:44;11.48;;;5.22;;
20861;SDS011;10591;52.532;13.348;2023-05-10T09:01:17;8.50;;;4.47;;
20861;SDS011;10591;52.532;13.348;2023-05-10T09:03:48;8.78;;;4.80;;
20861;SDS011;10591;52.532;13.348;2023-05-10T09:06:22;8.23;;;5.08;;
20861;SDS011;10591;52.532;13.348;2023-05-10T09:08:53;10.25;;;5.03;;
20861;SDS011;10591;52.532;13.348;2023-05-10T09:11:25;8.10;;;3.92;;
20861;SDS011;10591;52.532;13.348;2023-05-10T09:13:57;10.43;;;4.53;;
20861;SDS011;10591;52.532;13.348;2023-05-10T09:16:28;7.42;;;3.92;;
20861;SDS011;10591;52.532;13.348;2023-05-10T09:19:00;11.25;;;4.80;;
20861;SDS011;10591;52.532;13.348;2023-05-10T09:21:33;12.20;;;5.08;;
20861;SDS011;10591;52.532;13.348;2023-05-10T09:24:10;11.55;;;4.42;;
20861;SDS011;10591;52.532;13.348;2023-05-10T09:26:46;14.47;;;4.80;;
20861;SDS011;10591;52.532;13.348;2023-05-10T09:29:18;10.93;;;5.05;;
20861;SDS011;10591;52.532;13.348;2023-05-10T09:31:49;8.00;;;3.92;;
20861;SDS011;10591;52.532;13.348;2023-05-10T09:34:28;13.68;;;4.80;;
20861;SDS011;10591;52.532;13.348;2023-05-10T09:37:00;9.75;;;4.75;;
20861;SDS011;10591;52.532;13.348;2023-05-10T09:39:36;7.25;;;4.62;;
20861;SDS011;10591;52.532;13.348;2023-05-10T09:42:08;10.08;;;4.92;;
20861;SDS011;10591;52.532;13.348;2023-05-10T09:44:40;10.30;;;4.65;;
20861;SDS011;10591;52.532;13.348;2023-05-10T09:47:16;12.95;;;4.92;;
20861;SDS011;10591;52.532;13.348;2023-05-10T09:49:50;15.80;;;5.60;;
20861;SDS011;10591;52.532;13.348;2023-05-10T09:52:24;12.65;;;4.97;;
20861;SDS011;10591;52.532;13.348;2023-05-10T09:54:54;18.90;;;6.22;;
20861;SDS011;10591;52.532;13.348;2023-05-10T09:57:25;12.03;;;4.60;;
20861;SDS011;10591;52.532;13.348;2023-05-10T09:59:56;8.73;;;4.78;;
20861;SDS011;10591;52.532;13.348;2023-05-10T10:02:28;7.08;;;4.78;;
20861;SDS011;10591;52.532;13.348;2023-05-10T10:05:02;9.70;;;4.50;;
20861;SDS011;10591;52.532;13.348;2023-05-10T10:07:33;9.73;;;4.72;;
20861;SDS011;10591;52.532;13.348;2023-05-10T10:10:06;10.35;;;4.80;;
20861;SDS011;10591;52.532;13.348;2023-05-10T10:12:39;17.10;;;5.35;;
20861;SDS011;10591;52.532;13.348;2023-05-10T10:15:11;14.50;;;5.35;;
20861;SDS011;10591;52.532;13.348;2023-05-10T10:17:44;12.55;;;5.62;;
20861;SDS011;10591;52.532;13.348;2023-05-10T10:20:15;9.43;;;5.12;;
20861;SDS011;10591;52.532;13.348;2023-05-10T10:22:48;14.00;;;5.15;;
20861;SDS011;10591;52.532;13.348;2023-05-10T10:25:19;9.83;;;5.00;;
20861;SDS011;10591;52.532;13.348;2023-05-10T10:30:31;10.03;;;5.03;;
20861;SDS011;10591;52.532;13.348;2023-05-10T10:33:18;7.08;;;4.55;;
20861;SDS011;10591;52.532;13.348;2023-05-10T10:35:48;8.28;;;4.53;;
20861;SDS011;10591;52.532;13.348;2023-05-10T10:38:20;17.90;;;6.08;;
20861;SDS011;10591;52.532;13.348;2023-05-10T10:41:10;12.53;;;4.53;;
20861;SDS011;10591;52.532;13.348;2023-05-10T10:43:43;7.90;;;4.33;;
20861;SDS011;10591;52.532;13.348;2023-05-10T10:46:17;9.50;;;4.55;;
20861;SDS011;10591;52.532;13.348;2023-05-10T10:48:50;9.13;;;4.55;;
20861;SDS011;10591;52.532;13.348;2023-05-10T10:51:40;9.53;;;5.22;;
20861;SDS011;10591;52.532;13.348;2023-05-10T10:54:18;12.70;;;4.97;;
20861;SDS011;10591;52.532;13.348;2023-05-10T10:56:55;10.32;;;4.80;;
20861;SDS011;10591;52.532;13.348;2023-05-10T10:59:27;10.88;;;4.65;;
20861;SDS011;10591;52.532;13.348;2023-05-10T11:01:58;20.55;;;5.35;;
20861;SDS011;10591;52.532;13.348;2023-05-10T11:04:29;10.70;;;5.50;;
20861;SDS011;10591;52.532;13.348;2023-05-10T11:07:18;8.95;;;4.62;;
20861;SDS011;10591;52.532;13.348;2023-05-10T11:09:49;9.00;;;5.00;;
20861;SDS011;10591;52.532;13.348;2023-05-10T11:12:20;7.17;;;4.45;;
20861;SDS011;10591;52.532;13.348;2023-05-10T11:14:52;8.95;;;4.85;;
20861;SDS011;10591;52.532;13.348;2023-05-10T11:17:28;7.37;;;4.40;;
20861;SDS011;10591;52.532;13.348;2023-05-10T11:20:07;8.78;;;4.50;;
20861;SDS011;10591;52.532;13.348;2023-05-10T11:22:49;7.42;;;4.47;;
20861;SDS011;10591;52.532;13.348;2023-05-10T11:25:26;13.62;;;5.70;;
20861;SDS011;10591;52.532;13.348;2023-05-10T11:27:57;7.55;;;4.22;;
20861;SDS011;10591;52.532;13.348;2023-05-10T11:30:29;11.40;;;6.08;;
20861;SDS011;10591;52.532;13.348;2023-05-10T11:33:01;12.70;;;5.22;;
20861;SDS011;10591;52.532;13.348;2023-05-10T11:35:36;12.58;;;4.97;;
20861;SDS011;10591;52.532;13.348;2023-05-10T11:38:11;10.18;;;4.65;;
20861;SDS011;10591;52.532;13.348;2023-05-10T11:40:43;8.95;;;4.50;;
20861;SDS011;10591;52.532;13.348;2023-05-10T11:43:13;10.10;;;4.95;;
20861;SDS011;10591;52.532;13.348;2023-05-10T11:45:44;6.62;;;4.05;;
20861;SDS011;10591;52.532;13.348;2023-05-10T11:48:16;8.88;;;4.50;;
20861;SDS011;10591;52.532;13.348;2023-05-10T11:50:48;14.90;;;5.15;;
20861;SDS011;10591;52.532;13.348;2023-05-10T11:53:19;12.35;;;4.58;;
20861;SDS011;10591;52.532;13.348;2023-05-10T11:55:52;12.78;;;4.50;;
20861;SDS011;10591;52.532;13.348;2023-05-10T11:58:23;11.88;;;4.85;;
20861;SDS011;10591;52.532;13.348;2023-05-10T12:00:55;10.82;;;4.50;;
20861;SDS011;10591;52.532;13.348;2023-05-10T12:03:29;12.65;;;5.47;;
20861;SDS011;10591;52.532;13.348;2023-05-10T12:06:01;12.23;;;4.60;;
20861;SDS011;10591;52.532;13.348;2023-05-10T12:08:32;15.68;;;5.12;;
20861;SDS011;10591;52.532;13.348;2023-05-10T12:11:05;20.25;;;5.33;;
20861;SDS011;10591;52.532;13.348;2023-05-10T12:13:37;26.57;;;6.55;;
20861;SDS011;10591;52.532;13.348;2023-05-10T12:16:19;22.50;;;5.45;;
20861;SDS011;10591;52.532;13.348;2023-05-10T12:18:52;15.83;;;4.87;;
20861;SDS011;10591;52.532;13.348;2023-05-10T12:21:25;10.48;;;4.42;;
20861;SDS011;10591;52.532;13.348;2023-05-10T12:24:03;11.60;;;4.75;;
20861;SDS011;10591;52.532;13.348;2023-05-10T12:26:34;17.95;;;5.60;;
20861;SDS011;10591;52.532;13.348;2023-05-10T12:29:13;10.40;;;4.33;;
20861;SDS011;10591;52.532;13.348;2023-05-10T12:31:52;9.13;;;4.50;;
20861;SDS011;10591;52.532;13.348;2023-05-10T12:34:32;10.50;;;4.85;;
20861;SDS011;10591;52.532;13.348;2023-05-10T12:37:05;12.00;;;4.90;;
20861;SDS011;10591;52.532;13.348;2023-05-10T12:42:11;10.32;;;4.62;;
20861;SDS011;10591;52.532;13.348;2023-05-10T12:44:42;8.90;;;4.22;;
20861;SDS011;10591;52.532;13.348;2023-05-10T12:47:14;16.67;;;5.08;;
20861;SDS011;10591;52.532;13.348;2023-05-10T12:49:45;16.48;;;5.10;;
20861;SDS011;10591;52.532;13.348;2023-05-10T12:52:16;19.17;;;5.50;;
20861;SDS011;10591;52.532;13.348;2023-05-10T12:54:46;12.45;;;4.95;;
20861;SDS011;10591;52.532;13.348;2023-05-10T12:57:19;9.65;;;4.80;;
20861;SDS011;10591;52.532;13.348;2023-05-10T12:59:50;11.33;;;4.70;;
20861;SDS011;10591;52.532;13.348;2023-05-10T13:02:21;10.28;;;4.95;;
20861;SDS011;10591;52.532;13.348;2023-05-10T13:04:52;13.00;;;4.85;;
20861;SDS011;10591;52.532;13.348;2023-05-10T13:07:23;10.53;;;4.95;;
20861;SDS011;10591;52.532;13.348;2023-05-10T13:09:54;12.03;;;5.12;;
20861;SDS011;10591;52.532;13.348;2023-05-10T13:12:25;12.53;;;4.92;;
20861;SDS011;10591;52.532;13.348;2023-05-10T13:14:55;9.70;;;4.60;;
20861;SDS011;10591;52.532;13.348;2023-05-10T13:17:26;11.03;;;5.45;;
20861;SDS011;10591;52.532;13.348;2023-05-10T13:19:56;10.23;;;4.60;;
20861;SDS011;10591;52.532;13.348;2023-05-10T13:22:27;16.80;;;5.35;;
20861;SDS011;10591;52.532;13.348;2023-05-10T13:25:01;7.58;;;4.05;;
20861;SDS011;10591;52.532;13.348;2023-05-10T13:27:32;12.53;;;5.03;;
20861;SDS011;10591;52.532;13.348;2023-05-10T13:30:02;11.20;;;4.90;;
20861;SDS011;10591;52.532;13.348;2023-05-10T13:32:34;8.65;;;4.42;;
20861;SDS011;10591;52.532;13.348;2023-05-10T13:35:05;9.68;;;5.12;;
20861;SDS011;10591;52.532;13.348;2023-05-10T13:37:36;12.63;;;5.10;;
20861;SDS011;10591;52.532;13.348;2023-05-10T13:40:07;7.15;;;4.03;;
20861;SDS011;10591;52.532;13.348;2023-05-10T13:42:40;10.25;;;4.97;;
20861;SDS011;10591;52.532;13.348;2023-05-10T13:45:12;11.28;;;4.95;;
20861;SDS011;10591;52.532;13.348;2023-05-10T13:47:43;12.88;;;5.45;;
20861;SDS011;10591;52.532;13.348;2023-05-10T13:50:16;9.95;;;4.37;;
20861;SDS011;10591;52.532;13.348;2023-05-10T13:52:47;12.95;;;5.00;;
20861;SDS011;10591;52.532;13.348;2023-05-10T13:55:18;18.48;;;5.15;;
20861;SDS011;10591;52.532;13.348;2023-05-10T13:57:49;14.47;;;5.65;;
20861;SDS011;10591;52.532;13.348;2023-05-10T14:00:20;9.63;;;4.33;;
20861;SDS011;10591;52.532;13.348;2023-05-10T14:02:50;13.15;;;4.40;;
20861;SDS011;10591;52.532;13.348;2023-05-10T14:05:22;10.80;;;4.70;;
20861;SDS011;10591;52.532;13.348;2023-05-10T14:07:55;15.83;;;4.78;;
20861;SDS011;10591;52.532;13.348;2023-05-10T14:10:26;27.52;;;7.33;;
20861;SDS011;10591;52.532;13.348;2023-05-10T14:12:58;12.53;;;4.80;;
20861;SDS011;10591;52.532;13.348;2023-05-10T14:15:30;14.10;;;5.22;;
20861;SDS011;10591;52.532;13.348;2023-05-10T14:18:00;27.27;;;6.45;;
20861;SDS011;10591;52.532;13.348;2023-05-10T14:20:31;21.90;;;5.72;;
20861;SDS011;10591;52.532;13.348;2023-05-10T14:23:02;14.70;;;5.17;;
20861;SDS011;10591;52.532;13.348;2023-05-10T14:25:33;16.70;;;5.55;;
20861;SDS011;10591;52.532;13.348;2023-05-10T14:28:04;17.62;;;6.53;;
20861;SDS011;10591;52.532;13.348;2023-05-10T14:30:34;17.20;;;5.60;;
20861;SDS011;10591;52.532;13.348;2023-05-10T14:33:05;15.15;;;5.85;;
20861;SDS011;10591;52.532;13.348;2023-05-10T14:35:36;12.03;;;5.05;;
20861;SDS011;10591;52.532;13.348;2023-05-10T14:38:07;10.75;;;4.83;;
20861;SDS011;10591;52.532;13.348;2023-05-10T14:40:39;7.65;;;4.03;;
20861;SDS011;10591;52.532;13.348;2023-05-10T14:43:10;8.13;;;4.28;;
20861;SDS011;10591;52.532;13.348;2023-05-10T14:45:41;8.05;;;3.98;;
20861;SDS011;10591;52.532;13.348;2023-05-10T14:48:12;7.65;;;4.65;;
20861;SDS011;10591;52.532;13.348;2023-05-10T14:50:44;11.00;;;5.28;;
20861;SDS011;10591;52.532;13.348;2023-05-10T14:53:15;11.22;;;5.08;;
20861;SDS011;10591;52.532;13.348;2023-05-10T14:55:47;10.25;;;4.80;;
20861;SDS011;10591;52.532;13.348;2023-05-10T14:58:18;7.08;;;4.75;;
20861;SDS011;10591;52.532;13.348;2023-05-10T15:00:49;10.25;;;4.80;;
20861;SDS011;10591;52.532;13.348;2023-05-10T15:03:22;10.80;;;4.87;;
20861;SDS011;10591;52.532;13.348;2023-05-10T15:05:53;14.20;;;5.87;;
20861;SDS011;10591;52.532;13.348;2023-05-10T15:08:25;14.35;;;5.62;;
20861;SDS011;10591;52.532;13.348;2023-05-10T15:10:57;13.85;;;5.50;;
20861;SDS011;10591;52.532;13.348;2023-05-10T15:13:27;11.33;;;4.75;;
20861;SDS011;10591;52.532;13.348;2023-05-10T15:15:58;9.70;;;4.55;;
20861;SDS011;10591;52.532;13.348;2023-05-10T15:18:29;8.13;;;4.08;;
20861;SDS011;10591;52.532;13.348;2023-05-10T15:21:00;7.20;;;4.50;;
20861;SDS011;10591;52.532;13.348;2023-05-10T15:23:30;9.03;;;5.10;;